Terminal Aerodrome Forecast
Issued by NWS Jackson, KY

Home | Current Version | Previous Version | Text Only | Print | Product List | Glossary On
Versions: 1 2 3 4 5 6 7 8 9 10 11 12 13 14 15 16 17 18 19
098
FTUS43 KJKL 021734
TAFJKL
TAF
KJKL 021734Z 0218/0318 24005KT P6SM -SHRA SCT030 BKN070
      TEMPO 0218/0221 1SM TSRA OVC015CB
     FM022100 26004KT 5SM SHRA OVC025
     FM030000 VRB03KT P6SM VCTS OVC050CB
     FM030600 VRB03KT P6SM VCSH OVC015
     FM031500 28004KT P6SM VCSH BKN003
     FM031700 28005KT P6SM VCSH BKN015=

USA.gov is the U.S. government's official web portal to all federal, state and local government web resources and services.